Time;durP1;ratioP1;P1;durP2;ratioP2;P2;SDS_P1;SDS_P2;PMS_P1;PMS_P2;Temp;Humidity;BMP_temperature;BMP_pressure;BME280_temperature;BME280_humidity;BME280_pressure;Samples;Min_cycle;Max_cycle;Signal;HPM_P1;HPM_P2
2021/08/23 00:02:14;;;;;;;9.87;8.97;;;18.20;99.90;;;;;;5126113;28;20195;-40
2021/08/23 00:04:40;;;;;;;10.07;9.17;;;18.20;99.90;;;;;;5119399;28;20445;-41
2021/08/23 00:07:06;;;;;;;10.40;9.40;;;18.10;99.90;;;;;;5123688;28;20201;-41
2021/08/23 00:09:33;;;;;;;9.50;8.70;;;18.20;99.90;;;;;;5113961;28;20215;-42
2021/08/23 00:11:59;;;;;;;10.43;9.53;;;18.10;99.90;;;;;;5105260;28;20508;-44
2021/08/23 00:14:26;;;;;;;10.20;9.10;;;18.20;99.90;;;;;;5123712;28;20726;-41
2021/08/23 00:16:51;;;;;;;9.70;8.80;;;18.20;99.90;;;;;;5125661;28;21151;-39
2021/08/23 00:19:17;;;;;;;9.10;8.30;;;18.10;99.90;;;;;;5120230;28;20536;-43
2021/08/23 00:21:44;;;;;;;12.97;10.27;;;18.10;99.90;;;;;;5102217;28;20186;-42
2021/08/23 00:24:21;;;;;;;11.37;9.60;;;18.10;99.90;;;;;;5124006;28;20522;-43
2021/08/23 00:26:58;;;;;;;11.10;9.30;;;18.20;99.90;;;;;;5108740;28;20515;-42
2021/08/23 00:29:25;;;;;;;9.80;9.00;;;18.20;99.90;;;;;;5126286;27;20428;-39
2021/08/23 00:31:51;;;;;;;9.80;8.90;;;18.20;99.90;;;;;;5129362;27;21252;-43
2021/08/23 00:34:17;;;;;;;8.90;8.10;;;18.20;99.90;;;;;;5126523;27;20556;-45
2021/08/23 00:36:43;;;;;;;9.60;8.00;;;18.20;99.90;;;;;;5121324;27;20424;-43
2021/08/23 00:39:10;;;;;;;9.50;8.70;;;18.20;99.90;;;;;;5127101;27;20835;-43
2021/08/23 00:41:36;;;;;;;10.53;9.60;;;18.20;99.90;;;;;;5129491;27;20432;-43
2021/08/23 00:44:03;;;;;;;10.13;9.23;;;18.10;99.90;;;;;;5129223;27;20511;-40
2021/08/23 00:46:29;;;;;;;10.80;9.80;;;18.20;99.90;;;;;;5129099;27;20539;-45
2021/08/23 00:48:55;;;;;;;9.70;8.80;;;18.10;99.90;;;;;;5128644;27;20516;-42
2021/08/23 00:51:21;;;;;;;12.27;10.20;;;18.10;99.90;;;;;;5118274;27;20448;-43
2021/08/23 00:53:48;;;;;;;10.83;9.83;;;18.10;99.90;;;;;;5129356;27;20203;-43
2021/08/23 00:56:18;;;;;;;10.80;9.70;;;18.10;99.90;;;;;;5129385;27;20451;-45
2021/08/23 00:58:44;;;;;;;11.63;9.77;;;18.10;99.90;;;;;;5128089;27;20416;-39
2021/08/23 01:01:32;;;;;;;10.30;9.40;;;18.00;99.90;;;;;;5129130;27;20420;-42
2021/08/23 01:04:07;;;;;;;12.07;10.47;;;18.00;99.90;;;;;;5128096;27;20879;-43
2021/08/23 01:06:33;;;;;;;10.00;9.00;;;18.00;99.90;;;;;;5121093;27;20427;-43
2021/08/23 01:09:05;;;;;;;10.83;9.10;;;18.00;99.90;;;;;;5127861;27;20863;-40
2021/08/23 01:11:35;;;;;;;10.43;9.40;;;17.90;99.90;;;;;;5128816;27;20210;-40
2021/08/23 01:14:02;;;;;;;14.23;9.50;;;17.90;99.90;;;;;;5120690;27;20461;-41
2021/08/23 01:16:28;;;;;;;10.50;9.50;;;17.90;99.90;;;;;;5107942;28;20425;-42
2021/08/23 01:18:54;;;;;;;11.30;8.93;;;17.90;99.90;;;;;;5107935;28;20414;-43
2021/08/23 01:21:25;;;;;;;10.97;9.97;;;17.90;99.90;;;;;;5117890;27;20218;-40
2021/08/23 01:23:53;;;;;;;10.77;9.70;;;17.80;99.90;;;;;;5120440;27;20731;-39
2021/08/23 01:26:24;;;;;;;12.40;11.20;;;17.70;99.90;;;;;;5110180;27;20436;-40
2021/08/23 01:29:16;;;;;;;11.57;10.47;;;17.80;99.90;;;;;;5109999;27;20436;-43
2021/08/23 01:32:06;;;;;;;10.93;9.93;;;17.70;99.90;;;;;;5103053;27;20524;-41
2021/08/23 01:34:32;;;;;;;11.57;10.37;;;17.80;99.90;;;;;;5126134;27;20427;-42
2021/08/23 01:36:58;;;;;;;10.97;9.97;;;17.70;99.90;;;;;;5117066;27;20453;-45
2021/08/23 01:39:24;;;;;;;11.90;10.70;;;17.60;99.90;;;;;;5127601;27;20838;-43
2021/08/23 01:41:50;;;;;;;12.30;9.87;;;17.60;99.90;;;;;;5109994;27;20444;-40
2021/08/23 01:44:15;;;;;;;11.03;9.97;;;17.60;99.90;;;;;;5109936;27;20191;-39
2021/08/23 01:46:42;;;;;;;11.47;10.27;;;17.50;99.90;;;;;;5127520;27;20229;-42
2021/08/23 01:49:09;;;;;;;11.60;10.60;;;17.50;99.90;;;;;;5127588;27;20191;-41
2021/08/23 01:51:35;;;;;;;11.83;10.63;;;17.60;99.90;;;;;;5120112;27;20426;-43
2021/08/23 01:54:02;;;;;;;11.73;10.53;;;17.60;99.90;;;;;;5123584;27;20468;-42
2021/08/23 01:56:27;;;;;;;10.97;9.90;;;17.60;99.90;;;;;;5127728;27;20910;-39
2021/08/23 01:58:54;;;;;;;10.30;9.40;;;17.50;99.90;;;;;;5109074;27;20451;-40
2021/08/23 02:01:20;;;;;;;11.40;9.33;;;17.50;99.90;;;;;;5127361;27;20187;-44
2021/08/23 02:03:47;;;;;;;10.50;9.50;;;17.40;99.90;;;;;;5128023;27;20778;-44
2021/08/23 02:06:12;;;;;;;11.27;10.10;;;17.40;99.90;;;;;;5115780;27;20199;-41
2021/08/23 02:08:38;;;;;;;10.67;9.67;;;17.30;99.90;;;;;;5125736;27;20448;-39
2021/08/23 02:11:04;;;;;;;11.00;10.00;;;17.30;99.90;;;;;;5127519;27;20198;-42
2021/08/23 02:13:29;;;;;;;12.37;10.63;;;17.30;99.90;;;;;;5127309;27;20207;-40
2021/08/23 02:15:55;;;;;;;11.40;10.23;;;17.30;99.90;;;;;;5127491;27;20457;-40
2021/08/23 02:18:20;;;;;;;12.73;11.30;;;17.30;99.90;;;;;;5125717;27;20191;-39
2021/08/23 02:20:46;;;;;;;12.77;11.37;;;17.30;99.90;;;;;;5102343;27;20187;-39
2021/08/23 02:23:12;;;;;;;12.33;11.23;;;17.30;99.90;;;;;;5105673;27;20195;-43
2021/08/23 02:25:38;;;;;;;11.60;10.50;;;17.30;99.90;;;;;;5127598;27;20281;-42
2021/08/23 02:28:04;;;;;;;12.20;11.00;;;17.40;99.90;;;;;;5127314;27;20713;-44
2021/08/23 02:30:29;;;;;;;13.20;11.80;;;17.50;99.90;;;;;;5126426;27;20532;-42
2021/08/23 02:32:55;;;;;;;13.73;12.37;;;17.50;99.90;;;;;;5127124;27;20225;-40
2021/08/23 02:35:21;;;;;;;14.73;12.20;;;17.50;99.90;;;;;;5121805;27;20241;-41
2021/08/23 02:37:46;;;;;;;12.83;10.80;;;17.60;99.90;;;;;;5122377;27;20175;-43
2021/08/23 02:40:13;;;;;;;12.43;11.20;;;17.60;99.90;;;;;;5126599;27;20720;-39
2021/08/23 02:42:39;;;;;;;13.30;11.93;;;17.60;99.90;;;;;;5126657;27;20199;-40
2021/08/23 02:45:05;;;;;;;13.10;11.83;;;17.70;99.90;;;;;;5127193;27;20874;-41
2021/08/23 02:47:35;;;;;;;12.00;10.90;;;17.70;99.90;;;;;;5127168;27;20429;-42
2021/08/23 02:50:01;;;;;;;11.80;10.60;;;17.70;99.90;;;;;;5124225;27;20447;-40
2021/08/23 02:52:27;;;;;;;12.83;11.53;;;17.70;99.90;;;;;;5119321;27;20911;-42
2021/08/23 02:54:53;;;;;;;12.40;11.20;;;17.70;99.90;;;;;;5123379;27;20428;-41
2021/08/23 02:57:18;;;;;;;14.13;12.30;;;17.60;99.90;;;;;;5127339;27;20191;-42
2021/08/23 02:59:44;;;;;;;14.93;11.73;;;17.60;99.90;;;;;;5125762;27;20733;-42
2021/08/23 03:02:10;;;;;;;13.10;11.80;;;17.60;99.90;;;;;;5126758;27;20287;-41
2021/08/23 03:04:35;;;;;;;12.43;11.23;;;17.60;99.90;;;;;;5126813;27;20186;-44
2021/08/23 03:07:01;;;;;;;12.10;10.97;;;17.60;99.90;;;;;;5114484;27;20244;-40
2021/08/23 03:09:27;;;;;;;14.47;10.70;;;17.60;99.90;;;;;;5125391;27;20197;-43
2021/08/23 03:11:53;;;;;;;12.27;11.07;;;17.60;99.90;;;;;;5126479;27;20784;-44
2021/08/23 03:14:18;;;;;;;13.87;12.47;;;17.60;99.90;;;;;;5123472;27;20598;-42
2021/08/23 03:16:44;;;;;;;17.50;15.33;;;17.60;99.90;;;;;;5126714;27;20183;-43
2021/08/23 03:19:09;;;;;;;16.00;14.30;;;17.60;99.90;;;;;;5126030;27;20191;-39
2021/08/23 03:21:35;;;;;;;17.00;15.30;;;17.60;99.90;;;;;;5115891;27;20180;-40
2021/08/23 03:24:01;;;;;;;16.03;14.43;;;17.60;99.90;;;;;;5126378;27;20243;-39
2021/08/23 03:26:26;;;;;;;15.93;14.30;;;17.60;99.90;;;;;;5126240;27;20201;-42
2021/08/23 03:28:52;;;;;;;18.50;16.50;;;17.60;99.90;;;;;;5125570;27;20665;-39
2021/08/23 03:31:18;;;;;;;18.40;16.27;;;17.70;99.90;;;;;;5125867;27;20279;-39
2021/08/23 03:33:44;;;;;;;20.07;17.33;;;17.60;99.90;;;;;;5126454;27;20215;-41
2021/08/23 03:36:09;;;;;;;19.30;15.40;;;17.70;99.90;;;;;;5120969;27;20188;-43
2021/08/23 03:38:36;;;;;;;18.07;15.40;;;17.60;99.90;;;;;;5124595;27;20264;-39
2021/08/23 03:41:01;;;;;;;18.07;16.17;;;17.60;99.90;;;;;;5107020;27;20191;-41
2021/08/23 03:43:27;;;;;;;16.90;15.10;;;17.60;99.90;;;;;;5125862;27;20984;-40
2021/08/23 03:45:53;;;;;;;17.77;15.00;;;17.60;99.90;;;;;;5125766;27;20195;-39
2021/08/23 03:48:18;;;;;;;17.20;15.40;;;17.60;99.90;;;;;;5126276;27;20222;-39
2021/08/23 03:50:44;;;;;;;18.70;16.80;;;17.60;99.90;;;;;;5120606;27;20724;-42
2021/08/23 03:53:10;;;;;;;17.33;15.17;;;17.60;99.90;;;;;;5120481;27;20234;-39
2021/08/23 03:55:35;;;;;;;18.60;16.70;;;17.60;99.90;;;;;;5119482;28;20729;-40
2021/08/23 03:58:04;;;;;;;19.70;17.20;;;17.60;99.90;;;;;;5125299;28;20202;-39
2021/08/23 04:00:30;;;;;;;19.53;15.50;;;17.60;99.90;;;;;;5106678;28;20271;-40
2021/08/23 04:02:56;;;;;;;20.17;15.43;;;17.60;99.90;;;;;;5125562;27;20903;-41
2021/08/23 04:05:22;;;;;;;17.17;15.20;;;17.70;99.90;;;;;;5128111;27;20786;-40
2021/08/23 04:07:47;;;;;;;17.13;15.10;;;17.60;99.90;;;;;;5128207;27;20445;-39
2021/08/23 04:10:13;;;;;;;19.00;16.07;;;17.60;99.90;;;;;;5129178;27;20195;-40
2021/08/23 04:12:39;;;;;;;18.20;16.20;;;17.60;99.90;;;;;;5129442;27;20206;-41
2021/08/23 04:15:05;;;;;;;23.27;18.40;;;17.70;99.90;;;;;;5124874;27;20561;-40
2021/08/23 04:17:31;;;;;;;19.60;16.60;;;17.70;99.90;;;;;;5129766;27;20194;-39
2021/08/23 04:19:58;;;;;;;19.00;16.80;;;17.70;99.90;;;;;;5129042;27;20455;-41
2021/08/23 04:22:24;;;;;;;21.60;17.73;;;17.70;99.90;;;;;;5113399;27;20188;-39
2021/08/23 04:24:49;;;;;;;19.67;17.57;;;17.70;99.90;;;;;;5128935;27;20970;-39
2021/08/23 04:27:15;;;;;;;22.27;19.20;;;17.70;99.90;;;;;;5129172;27;20209;-39
2021/08/23 04:29:41;;;;;;;20.43;18.30;;;17.70;99.90;;;;;;5128875;27;20195;-40
2021/08/23 04:32:06;;;;;;;21.63;18.47;;;17.70;99.90;;;;;;5129941;27;20195;-39
2021/08/23 04:34:32;;;;;;;22.43;20.03;;;17.70;99.90;;;;;;5129492;27;20218;-39
2021/08/23 04:37:03;;;;;;;22.23;19.93;;;17.70;99.90;;;;;;5118581;27;20219;-42
2021/08/23 04:39:32;;;;;;;25.33;22.60;;;17.70;99.90;;;;;;5125971;27;20179;-42
2021/08/23 04:41:59;;;;;;;28.77;23.10;;;17.70;99.90;;;;;;5129686;27;20896;-41
2021/08/23 04:44:24;;;;;;;32.50;25.37;;;17.70;99.90;;;;;;5129382;27;20412;-39
2021/08/23 04:46:50;;;;;;;35.33;29.90;;;17.70;99.90;;;;;;5129536;27;20527;-40
2021/08/23 04:49:16;;;;;;;29.13;25.33;;;17.70;99.90;;;;;;5130365;27;20218;-39
2021/08/23 04:51:43;;;;;;;33.23;26.97;;;17.70;99.90;;;;;;5122583;27;20203;-40
2021/08/23 04:54:08;;;;;;;32.83;26.30;;;17.70;99.90;;;;;;5126115;27;20453;-42
2021/08/23 04:56:34;;;;;;;26.90;23.67;;;17.70;99.90;;;;;;5129270;27;20477;-39
2021/08/23 04:59:00;;;;;;;33.47;26.17;;;17.70;99.90;;;;;;5110080;27;20592;-40
2021/08/23 05:01:25;;;;;;;29.73;23.40;;;17.70;99.90;;;;;;5129354;27;20794;-40
2021/08/23 05:03:51;;;;;;;30.73;22.60;;;17.70;99.90;;;;;;5093828;27;20212;-39
2021/08/23 05:06:17;;;;;;;31.20;23.73;;;17.70;99.90;;;;;;5123189;27;20223;-40
2021/08/23 05:08:43;;;;;;;26.80;23.90;;;17.70;99.90;;;;;;5121888;27;20225;-40
2021/08/23 05:11:08;;;;;;;26.87;22.70;;;17.60;99.90;;;;;;5127292;27;20325;-40
2021/08/23 05:13:35;;;;;;;25.77;22.60;;;17.60;99.90;;;;;;5122259;27;20211;-39
2021/08/23 05:16:01;;;;;;;28.10;22.33;;;17.60;99.90;;;;;;5128329;27;20649;-40
2021/08/23 05:18:26;;;;;;;28.37;23.77;;;17.60;99.90;;;;;;5129112;27;20421;-39
2021/08/23 05:20:52;;;;;;;25.57;22.13;;;17.60;99.90;;;;;;5126720;27;20424;-39
2021/08/23 05:23:18;;;;;;;24.23;21.63;;;17.60;99.90;;;;;;5120399;27;20191;-39
2021/08/23 05:25:43;;;;;;;24.17;20.67;;;17.60;99.90;;;;;;5104770;27;20191;-40
2021/08/23 05:28:09;;;;;;;24.00;20.80;;;17.60;99.90;;;;;;5128554;27;20539;-40
2021/08/23 05:30:35;;;;;;;28.10;22.60;;;17.60;99.90;;;;;;5128129;27;20247;-41
2021/08/23 05:33:01;;;;;;;27.80;22.70;;;17.60;99.90;;;;;;5128504;27;20253;-39
2021/08/23 05:35:27;;;;;;;26.40;22.60;;;17.60;99.90;;;;;;5128628;27;20201;-39
2021/08/23 05:37:53;;;;;;;25.73;21.20;;;17.60;99.90;;;;;;5099803;27;20179;-40
2021/08/23 05:40:30;;;;;;;23.87;21.13;;;17.60;99.90;;;;;;5127679;27;20424;-41
2021/08/23 05:42:56;;;;;;;25.70;21.03;;;17.60;99.90;;;;;;5122391;27;20529;-39
2021/08/23 05:45:22;;;;;;;26.53;22.00;;;17.60;99.90;;;;;;5120854;27;20515;-39
2021/08/23 05:47:48;;;;;;;27.93;20.50;;;17.60;99.90;;;;;;5108952;27;20216;-39
2021/08/23 05:50:13;;;;;;;28.07;22.53;;;17.60;99.90;;;;;;5125068;27;20286;-39
2021/08/23 05:52:39;;;;;;;24.87;21.60;;;17.60;99.90;;;;;;5117580;27;20231;-39
2021/08/23 05:55:05;;;;;;;26.27;21.50;;;17.60;99.90;;;;;;5127740;27;20191;-39
2021/08/23 05:57:31;;;;;;;28.60;22.57;;;17.60;99.90;;;;;;5127433;27;20171;-39
2021/08/23 05:59:56;;;;;;;26.77;22.20;;;17.60;99.90;;;;;;5126777;27;20867;-39
2021/08/23 06:02:22;;;;;;;24.80;21.17;;;17.60;99.90;;;;;;5127929;27;20190;-39
2021/08/23 06:04:48;;;;;;;27.70;21.23;;;17.70;99.90;;;;;;5127678;27;20191;-41
2021/08/23 06:07:14;;;;;;;26.97;21.87;;;17.60;99.90;;;;;;5117811;27;20187;-41
2021/08/23 06:09:40;;;;;;;27.07;21.77;;;17.60;99.90;;;;;;5126389;27;20255;-40
2021/08/23 06:12:06;;;;;;;27.13;21.97;;;17.60;99.90;;;;;;5124503;27;20421;-41
2021/08/23 06:14:32;;;;;;;29.73;23.70;;;17.60;99.90;;;;;;5117479;27;20457;-43
2021/08/23 06:16:57;;;;;;;30.90;23.97;;;17.60;99.90;;;;;;5128513;27;20425;-39
2021/08/23 06:19:23;;;;;;;28.00;23.40;;;17.60;99.90;;;;;;5126586;27;20198;-39
2021/08/23 06:21:49;;;;;;;27.53;21.80;;;17.60;99.90;;;;;;5122729;27;20928;-42
2021/08/23 06:24:14;;;;;;;28.37;23.20;;;17.60;99.90;;;;;;5122549;27;20537;-40
2021/08/23 06:26:40;;;;;;;26.03;22.57;;;17.60;99.90;;;;;;5118464;27;20252;-40
2021/08/23 06:29:08;;;;;;;24.70;21.83;;;17.60;99.90;;;;;;5126440;27;20258;-39
2021/08/23 06:31:33;;;;;;;22.60;19.57;;;17.60;99.90;;;;;;5127322;27;20286;-39
2021/08/23 06:33:59;;;;;;;21.87;18.90;;;17.60;99.90;;;;;;5127559;27;20993;-39
2021/08/23 06:36:25;;;;;;;22.20;19.47;;;17.60;99.90;;;;;;5126032;27;20220;-39
2021/08/23 06:38:50;;;;;;;23.10;19.27;;;17.60;99.90;;;;;;5118382;27;20270;-39
2021/08/23 06:41:18;;;;;;;25.33;21.03;;;17.60;99.90;;;;;;5127177;27;20209;-40
2021/08/23 06:43:45;;;;;;;24.20;19.57;;;17.50;99.90;;;;;;5127027;27;20275;-42
2021/08/23 06:46:10;;;;;;;21.70;18.33;;;17.50;99.90;;;;;;5126987;27;20734;-39
2021/08/23 06:48:36;;;;;;;20.43;18.07;;;17.60;99.90;;;;;;5126914;27;20824;-39
2021/08/23 06:51:01;;;;;;;21.27;17.53;;;17.50;99.90;;;;;;5126461;27;20298;-40
2021/08/23 06:53:27;;;;;;;19.90;17.27;;;17.50;99.90;;;;;;5114218;27;20210;-42
2021/08/23 06:55:53;;;;;;;20.20;17.10;;;17.50;99.90;;;;;;5126381;27;20575;-39
2021/08/23 06:58:19;;;;;;;20.10;16.93;;;17.50;99.90;;;;;;5126891;27;20195;-39
2021/08/23 07:00:44;;;;;;;21.63;16.53;;;17.50;99.90;;;;;;5125881;27;20430;-39
2021/08/23 07:03:10;;;;;;;17.60;15.27;;;17.60;99.90;;;;;;5126890;27;20572;-39
2021/08/23 07:05:36;;;;;;;17.67;15.73;;;17.60;99.90;;;;;;5126476;27;20187;-39
2021/08/23 07:08:02;;;;;;;17.20;14.90;;;17.60;99.90;;;;;;5114787;27;20609;-40
2021/08/23 07:10:28;;;;;;;16.00;14.30;;;17.60;99.90;;;;;;5123803;27;20425;-40
2021/08/23 07:12:53;;;;;;;14.30;12.80;;;17.60;99.90;;;;;;5126500;27;20267;-41
2021/08/23 07:15:19;;;;;;;14.47;12.97;;;17.60;99.90;;;;;;5110259;27;20194;-39
2021/08/23 07:17:46;;;;;;;14.17;12.17;;;17.60;99.90;;;;;;5126370;27;20613;-42
2021/08/23 07:20:12;;;;;;;14.13;12.70;;;17.70;99.90;;;;;;5125096;27;20981;-41
2021/08/23 07:22:38;;;;;;;14.30;12.90;;;17.60;99.90;;;;;;5118652;27;20273;-42
2021/08/23 07:25:06;;;;;;;15.30;13.70;;;17.50;99.90;;;;;;5122033;27;20563;-40
2021/08/23 07:27:32;;;;;;;15.07;13.63;;;17.50;99.90;;;;;;5125646;27;20767;-39
2021/08/23 07:29:59;;;;;;;15.57;13.97;;;17.40;99.90;;;;;;5124055;27;20509;-41
2021/08/23 07:32:25;;;;;;;15.83;13.10;;;17.40;99.90;;;;;;5126156;27;20424;-40
2021/08/23 07:34:51;;;;;;;16.00;14.10;;;17.50;99.90;;;;;;5125963;27;20429;-40
2021/08/23 07:37:17;;;;;;;14.47;12.93;;;17.50;99.90;;;;;;5120494;27;20971;-40
2021/08/23 07:39:43;;;;;;;16.60;13.30;;;17.50;99.90;;;;;;5124516;27;20210;-41
2021/08/23 07:42:09;;;;;;;16.33;14.63;;;17.50;99.90;;;;;;5123816;27;20179;-40
2021/08/23 07:44:35;;;;;;;17.40;13.87;;;17.50;99.90;;;;;;5122459;27;20413;-40
2021/08/23 07:47:01;;;;;;;16.37;14.83;;;17.50;99.90;;;;;;5112389;27;20425;-41
2021/08/23 07:49:27;;;;;;;14.20;12.80;;;17.60;99.90;;;;;;5103275;28;20432;-42
2021/08/23 07:51:52;;;;;;;15.97;14.33;;;17.60;99.90;;;;;;5086187;28;20192;-40
2021/08/23 07:54:18;;;;;;;15.03;13.43;;;17.60;99.90;;;;;;5117895;27;20574;-40
2021/08/23 07:56:45;;;;;;;15.30;13.60;;;17.60;99.90;;;;;;5125918;27;20186;-39
2021/08/23 07:59:10;;;;;;;15.07;13.57;;;17.60;99.90;;;;;;5125123;27;20418;-40
2021/08/23 08:01:36;;;;;;;18.67;15.10;;;17.50;99.90;;;;;;5125971;27;20427;-39
2021/08/23 08:04:02;;;;;;;15.50;13.90;;;17.50;99.90;;;;;;5125834;28;20275;-42
2021/08/23 08:06:28;;;;;;;17.20;15.33;;;17.50;99.90;;;;;;5107473;28;20190;-41
2021/08/23 08:08:53;;;;;;;16.30;14.57;;;17.60;99.90;;;;;;5113890;28;20422;-40
2021/08/23 08:11:20;;;;;;;16.40;14.70;;;17.60;99.90;;;;;;5107258;28;20301;-41
2021/08/23 08:13:46;;;;;;;15.57;14.07;;;17.60;99.90;;;;;;5119420;28;20199;-42
2021/08/23 08:16:11;;;;;;;17.77;15.63;;;17.60;99.90;;;;;;5111399;28;20425;-40
2021/08/23 08:18:37;;;;;;;18.30;16.27;;;17.60;99.90;;;;;;5124142;28;20431;-40
2021/08/23 08:21:04;;;;;;;16.70;14.90;;;17.60;99.90;;;;;;5125631;28;20348;-40
2021/08/23 08:23:30;;;;;;;18.33;16.50;;;17.70;99.90;;;;;;5116910;28;20437;-44
2021/08/23 08:25:56;;;;;;;16.10;14.50;;;17.70;99.90;;;;;;5125577;28;20427;-40
2021/08/23 08:28:21;;;;;;;17.60;15.87;;;17.80;99.90;;;;;;5125283;28;20447;-40
2021/08/23 08:30:47;;;;;;;15.97;14.30;;;17.90;99.90;;;;;;5124950;28;20219;-40
2021/08/23 08:33:14;;;;;;;17.60;15.50;;;17.90;99.90;;;;;;5125454;28;20250;-41
2021/08/23 08:35:40;;;;;;;17.47;14.90;;;17.80;99.90;;;;;;5125159;28;20179;-40
2021/08/23 08:38:06;;;;;;;18.57;16.67;;;17.80;99.90;;;;;;5121408;28;20428;-40
2021/08/23 08:40:32;;;;;;;15.20;13.70;;;17.90;99.90;;;;;;5124287;28;20423;-40
2021/08/23 08:42:58;;;;;;;17.30;15.50;;;17.90;99.90;;;;;;5118913;28;20332;-40
2021/08/23 08:45:26;;;;;;;17.80;15.97;;;17.80;99.90;;;;;;5125413;28;20432;-40
2021/08/23 08:47:55;;;;;;;17.30;15.50;;;17.80;99.90;;;;;;5125474;28;20614;-40
2021/08/23 08:50:23;;;;;;;16.10;14.43;;;17.80;99.90;;;;;;5126141;27;20429;-40
2021/08/23 08:52:49;;;;;;;18.30;16.20;;;17.80;99.90;;;;;;5124354;27;20483;-40
2021/08/23 08:55:16;;;;;;;15.23;13.73;;;17.80;99.90;;;;;;5124438;27;20412;-40
2021/08/23 08:57:42;;;;;;;17.47;15.07;;;17.80;99.90;;;;;;5128465;27;20417;-42
2021/08/23 09:00:09;;;;;;;16.70;15.00;;;17.80;99.90;;;;;;5127967;27;20877;-43
2021/08/23 09:02:36;;;;;;;17.50;15.63;;;17.80;99.90;;;;;;5129469;27;20420;-40
2021/08/23 09:05:16;;;;;;;21.27;15.50;;;17.80;99.90;;;;;;5128883;27;20460;-40
2021/08/23 09:07:48;;;;;;;18.37;16.53;;;17.90;99.90;;;;;;5125811;27;20494;-43
2021/08/23 09:10:21;;;;;;;20.03;17.00;;;17.90;99.90;;;;;;5116167;27;20428;-39
2021/08/23 09:12:46;;;;;;;19.73;17.67;;;17.90;99.90;;;;;;5109688;27;20535;-39
2021/08/23 09:15:12;;;;;;;19.03;16.93;;;17.90;99.90;;;;;;5111585;27;20437;-40
2021/08/23 09:17:38;;;;;;;20.00;17.63;;;17.90;99.90;;;;;;5123369;27;20504;-40
2021/08/23 09:20:06;;;;;;;18.87;15.97;;;17.90;99.90;;;;;;5128281;27;20199;-39
2021/08/23 09:22:32;;;;;;;18.53;16.50;;;17.90;99.90;;;;;;5127210;27;20637;-41
2021/08/23 09:25:11;;;;;;;18.50;16.60;;;17.90;99.90;;;;;;5114631;27;20416;-39
2021/08/23 09:27:37;;;;;;;16.87;15.10;;;17.90;99.90;;;;;;5128445;27;20444;-43
2021/08/23 09:30:06;;;;;;;22.30;19.00;;;18.00;99.90;;;;;;5127988;27;20960;-40
2021/08/23 09:32:45;;;;;;;20.53;17.73;;;18.00;99.90;;;;;;5128184;27;20417;-40
2021/08/23 09:35:11;;;;;;;20.07;17.10;;;18.10;99.90;;;;;;5116215;27;20415;-39
2021/08/23 09:37:37;;;;;;;22.63;17.50;;;18.10;99.90;;;;;;5127300;27;20706;-39
2021/08/23 09:40:13;;;;;;;21.63;16.80;;;18.20;99.90;;;;;;5124017;27;20448;-40
2021/08/23 09:42:41;;;;;;;17.93;15.90;;;18.20;99.90;;;;;;5128292;27;20435;-44
2021/08/23 09:45:17;;;;;;;20.00;16.67;;;18.20;99.90;;;;;;5128401;27;20863;-39
2021/08/23 09:47:43;;;;;;;18.53;15.70;;;18.20;99.90;;;;;;5109433;27;20420;-40
2021/08/23 09:50:16;;;;;;;20.80;17.97;;;18.20;99.90;;;;;;5127369;27;20501;-42
2021/08/23 09:52:41;;;;;;;21.20;16.97;;;18.30;99.90;;;;;;5127380;27;20466;-39
2021/08/23 09:55:09;;;;;;;21.80;16.33;;;18.30;99.90;;;;;;5105563;27;20762;-40
2021/08/23 09:57:41;;;;;;;18.93;16.17;;;18.30;99.90;;;;;;5126875;27;20557;-42
2021/08/23 10:00:11;;;;;;;22.93;18.00;;;18.30;99.90;;;;;;5127309;27;20437;-40
2021/08/23 10:02:44;;;;;;;22.77;18.87;;;18.30;99.90;;;;;;5124835;27;20416;-40
2021/08/23 10:05:18;;;;;;;20.53;16.13;;;18.30;99.90;;;;;;5127424;27;20424;-41
2021/08/23 10:07:45;;;;;;;18.03;15.90;;;18.30;99.90;;;;;;5127222;27;20508;-39
2021/08/23 10:10:11;;;;;;;19.57;17.47;;;18.40;99.90;;;;;;5118213;27;20424;-42
2021/08/23 10:12:38;;;;;;;20.20;18.00;;;18.50;99.90;;;;;;5122029;27;21111;-40
2021/08/23 10:15:10;;;;;;;21.60;17.80;;;18.50;99.90;;;;;;5110559;27;20512;-40
2021/08/23 10:17:37;;;;;;;20.10;16.47;;;18.50;99.90;;;;;;5117731;27;20440;-40
2021/08/23 10:20:08;;;;;;;17.73;15.77;;;18.60;99.90;;;;;;5126687;27;20790;-40
2021/08/23 10:22:36;;;;;;;20.17;18.07;;;18.60;99.90;;;;;;5109057;27;20424;-39
2021/08/23 10:25:03;;;;;;;19.13;16.17;;;18.60;99.90;;;;;;5118197;27;20425;-39
2021/08/23 10:27:33;;;;;;;18.03;16.13;;;18.70;99.90;;;;;;5127324;27;20409;-40
2021/08/23 10:29:59;;;;;;;19.67;16.73;;;18.70;99.90;;;;;;5126587;27;20730;-40
2021/08/23 10:32:39;;;;;;;18.27;16.37;;;18.80;99.90;;;;;;5127525;27;20401;-40
2021/08/23 10:35:15;;;;;;;18.60;16.13;;;18.90;99.90;;;;;;5114262;27;20493;-42
2021/08/23 10:37:43;;;;;;;18.07;16.17;;;19.00;99.90;;;;;;5127138;27;20959;-40
2021/08/23 10:40:09;;;;;;;18.73;16.80;;;19.10;99.90;;;;;;5117063;27;20421;-44
2021/08/23 10:42:37;;;;;;;18.40;15.77;;;19.20;99.90;;;;;;5108172;27;20481;-40
2021/08/23 10:45:12;;;;;;;18.83;16.83;;;19.20;99.90;;;;;;5127171;27;20434;-40
2021/08/23 10:47:37;;;;;;;20.07;17.97;;;19.20;99.90;;;;;;5126824;27;20424;-40
2021/08/23 10:50:06;;;;;;;21.23;18.47;;;19.20;99.90;;;;;;5126269;27;20428;-43
2021/08/23 10:52:36;;;;;;;20.80;17.65;;;19.10;99.90;;;;;;5126475;27;20274;-41
2021/08/23 10:55:07;;;;;;;21.57;17.37;;;19.10;99.90;;;;;;5116250;27;20521;-39
2021/08/23 10:57:32;;;;;;;20.23;16.50;;;19.10;99.90;;;;;;5122224;27;20943;-40
2021/08/23 11:00:10;;;;;;;20.47;18.33;;;19.10;99.90;;;;;;5125916;27;20431;-39
2021/08/23 11:02:38;;;;;;;18.20;16.30;;;19.10;99.90;;;;;;5126725;27;20871;-41
2021/08/23 11:05:19;;;;;;;19.03;17.03;;;19.20;99.90;;;;;;5126024;27;20474;-43
2021/08/23 11:07:47;;;;;;;18.60;16.70;;;19.10;99.90;;;;;;5126667;27;20420;-40
2021/08/23 11:10:32;;;;;;;18.30;15.80;;;19.20;99.90;;;;;;5116055;27;20416;-39
2021/08/23 11:13:10;;;;;;;22.10;17.30;;;19.10;99.90;;;;;;5119031;27;20460;-42
2021/08/23 11:15:36;;;;;;;18.57;16.70;;;19.20;99.90;;;;;;5112872;27;20992;-39
2021/08/23 11:18:05;;;;;;;17.50;15.03;;;19.10;99.90;;;;;;5126347;27;20511;-41
2021/08/23 11:20:36;;;;;;;19.27;17.27;;;19.20;99.90;;;;;;5125744;27;20664;-43
2021/08/23 11:23:07;;;;;;;19.53;17.50;;;19.30;99.90;;;;;;5126754;27;20416;-40
2021/08/23 11:25:36;;;;;;;14.90;13.40;;;19.30;99.90;;;;;;5116125;27;20460;-42
2021/08/23 11:28:05;;;;;;;18.10;15.93;;;19.30;99.90;;;;;;5105241;27;20442;-40
2021/08/23 11:30:39;;;;;;;15.00;13.47;;;19.30;99.90;;;;;;5104912;28;20418;-41
2021/08/23 11:33:07;;;;;;;18.03;16.10;;;19.30;99.90;;;;;;5115377;27;20608;-41
2021/08/23 11:35:33;;;;;;;18.33;16.53;;;19.30;99.90;;;;;;5125897;27;20425;-42
2021/08/23 11:38:03;;;;;;;16.63;14.93;;;19.30;99.90;;;;;;5125570;27;20753;-40
2021/08/23 11:40:30;;;;;;;17.27;15.57;;;19.30;99.90;;;;;;5112362;27;20426;-40
2021/08/23 11:42:58;;;;;;;17.53;15.47;;;19.40;99.90;;;;;;5125596;27;20830;-40
2021/08/23 11:45:27;;;;;;;18.93;15.90;;;19.40;99.90;;;;;;5107579;27;20459;-40
2021/08/23 11:47:53;;;;;;;16.43;14.70;;;19.50;99.90;;;;;;5125612;27;20423;-41
2021/08/23 11:50:20;;;;;;;15.70;13.80;;;19.50;99.90;;;;;;5125265;27;20795;-40
2021/08/23 11:52:50;;;;;;;16.47;14.77;;;19.50;99.90;;;;;;5125471;27;20424;-42
2021/08/23 11:55:31;;;;;;;15.53;14.00;;;19.50;99.90;;;;;;5113150;27;20433;-42
2021/08/23 11:58:03;;;;;;;15.33;13.83;;;19.50;99.90;;;;;;5124339;27;20405;-42
2021/08/23 12:00:29;;;;;;;16.10;14.50;;;19.50;99.90;;;;;;5125082;27;20468;-40
2021/08/23 12:03:16;;;;;;;15.77;14.00;;;19.50;99.90;;;;;;5125471;27;20520;-40
2021/08/23 12:05:46;;;;;;;14.27;12.87;;;19.40;99.90;;;;;;5125596;28;21004;-40
2021/08/23 12:08:27;;;;;;;16.07;14.47;;;19.40;99.90;;;;;;5125557;28;20505;-41
2021/08/23 12:11:10;;;;;;;16.90;14.37;;;19.40;99.90;;;;;;5117351;28;20424;-40
2021/08/23 12:13:45;;;;;;;15.80;14.20;;;19.30;99.90;;;;;;5125277;28;20771;-41
2021/08/23 12:16:14;;;;;;;16.53;14.83;;;19.30;99.90;;;;;;5126012;28;20527;-42
2021/08/23 12:18:46;;;;;;;14.37;12.97;;;19.30;99.90;;;;;;5125174;28;20882;-40
2021/08/23 12:21:28;;;;;;;15.10;13.60;;;19.30;99.90;;;;;;5125655;28;20804;-40
2021/08/23 12:24:04;;;;;;;17.13;15.33;;;19.30;99.90;;;;;;5123626;27;20424;-40
2021/08/23 12:26:32;;;;;;;14.80;13.33;;;19.30;99.90;;;;;;5121854;27;20408;-40
2021/08/23 12:29:00;;;;;;;13.30;12.00;;;19.40;99.90;;;;;;5126628;27;20409;-40
2021/08/23 12:31:27;;;;;;;14.43;13.07;;;19.50;99.90;;;;;;5129698;27;20803;-41